createdAt,value
2022-08-17T00:03:10.642Z,22.66
2022-08-17T00:08:14.243Z,22.60
2022-08-17T00:13:26.539Z,22.94
2022-08-17T00:19:01.244Z,23.27
2022-08-17T00:23:53.714Z,23.21
2022-08-17T00:28:55.970Z,23.07
2022-08-17T00:33:58.077Z,23.08
2022-08-17T00:38:59.672Z,23.15
2022-08-17T00:44:05.116Z,23.19
2022-08-17T00:49:08.637Z,23.30
2022-08-17T00:54:18.921Z,23.18
2022-08-17T00:59:25.786Z,22.87
2022-08-17T01:04:29.788Z,22.73
2022-08-17T01:09:32.793Z,22.71
2022-08-17T01:14:34.761Z,22.61
2022-08-17T01:19:41.701Z,22.60
2022-08-17T01:24:46.997Z,22.64
2022-08-17T01:29:55.036Z,22.66
2022-08-17T01:34:57.597Z,22.76
2022-08-17T01:40:13.248Z,22.78
2022-08-17T01:45:21.979Z,22.74
2022-08-17T01:50:28.464Z,22.69
2022-08-17T01:55:38.098Z,22.65
2022-08-17T02:00:46.734Z,22.49
2022-08-17T02:06:02.689Z,22.44
2022-08-17T02:11:11.674Z,22.35
2022-08-17T02:16:13.507Z,22.29
2022-08-17T02:21:15.093Z,22.17
2022-08-17T02:26:25.754Z,21.96
2022-08-17T02:31:28.348Z,21.98
2022-08-17T02:36:29.945Z,22.08
2022-08-17T02:41:31.784Z,22.10
2022-08-17T02:46:33.431Z,21.96
2022-08-17T02:51:35.192Z,21.78
2022-08-17T02:56:36.763Z,21.73
2022-08-17T03:01:38.466Z,21.73
2022-08-17T03:06:40.084Z,21.82
2022-08-17T03:11:41.636Z,21.54
2022-08-17T03:16:43.210Z,21.40
2022-08-17T03:21:45.524Z,21.45
2022-08-17T03:26:47.075Z,21.30
2022-08-17T03:31:49.697Z,21.23
2022-08-17T03:36:51.250Z,21.20
2022-08-17T03:41:52.814Z,21.16
2022-08-17T03:46:54.474Z,21.34
2022-08-17T03:51:57.709Z,21.37
2022-08-17T03:57:08.979Z,21.34
2022-08-17T04:02:21.722Z,21.05
2022-08-17T04:07:28.152Z,21.05
2022-08-17T04:12:41.932Z,21.39
2022-08-17T04:17:44.319Z,21.44
2022-08-17T04:23:06.550Z,21.61
2022-08-17T04:28:15.779Z,21.46
2022-08-17T04:33:21.906Z,21.30
2022-08-17T04:38:27.368Z,21.42
2022-08-17T04:43:31.539Z,21.53
2022-08-17T04:48:37.550Z,21.56
2022-08-17T04:53:51.067Z,21.61
2022-08-17T04:59:00.346Z,21.80
2022-08-17T05:04:20.889Z,22.03
2022-08-17T05:09:28.763Z,21.87
2022-08-17T05:14:33.742Z,22.09
2022-08-17T05:19:35.442Z,22.27
2022-08-17T05:24:50.382Z,22.26
2022-08-17T05:29:55.446Z,22.23
2022-08-17T05:34:57.101Z,22.49
2022-08-17T05:39:58.686Z,22.59
2022-08-17T05:45:00.492Z,22.86
2022-08-17T05:50:02.675Z,22.97
2022-08-17T05:55:37.887Z,23.06
2022-08-17T06:00:52.391Z,23.31
2022-08-17T06:06:05.933Z,23.44
2022-08-17T06:11:10.193Z,23.90
2022-08-17T06:16:28.144Z,24.21
2022-08-17T06:21:39.381Z,23.69
2022-08-17T06:26:43.455Z,24.08
2022-08-17T06:31:45.249Z,24.22
2022-08-17T06:37:06.295Z,24.67
2022-08-17T06:42:55.125Z,25.87
2022-08-17T06:47:56.381Z,26.42
2022-08-17T06:53:14.517Z,26.39
2022-08-17T06:58:20.554Z,26.61
2022-08-17T07:03:48.423Z,26.13
2022-08-17T07:09:02.595Z,26.57
2022-08-17T07:14:13.997Z,27.08
2022-08-17T07:19:23.460Z,27.68
2022-08-17T07:24:36.978Z,27.90
2022-08-17T07:29:59.206Z,27.41
2022-08-17T07:35:10.646Z,27.47
2022-08-17T07:40:49.879Z,28.14
2022-08-17T07:46:03.747Z,27.61
2022-08-17T07:51:28.365Z,27.50
2022-08-17T07:56:42.427Z,28.29
2022-08-17T08:02:23.713Z,28.03
2022-08-17T08:08:02.991Z,27.66
2022-08-17T08:13:14.680Z,27.36
2022-08-17T08:18:54.862Z,27.07
2022-08-17T08:23:55.178Z,26.70
2022-08-17T08:29:31.554Z,26.26
2022-08-17T08:34:47.431Z,26.16
2022-08-17T08:40:10.559Z,26.01
2022-08-17T08:45:21.407Z,25.86
2022-08-17T08:50:47.785Z,25.87
2022-08-17T08:55:55.052Z,26.01
2022-08-17T09:00:59.710Z,25.92
2022-08-17T09:06:37.329Z,25.87
2022-08-17T09:12:02.140Z,25.63
2022-08-17T09:17:16.521Z,25.62
2022-08-17T09:22:33.456Z,25.68
2022-08-17T09:27:50.585Z,25.56
2022-08-17T09:32:58.612Z,25.50
2022-08-17T09:38:16.333Z,25.40
2022-08-17T09:43:41.148Z,24.91
2022-08-17T09:48:53.919Z,24.81
2022-08-17T09:54:09.462Z,25.07
2022-08-17T09:59:45.722Z,25.47
2022-08-17T10:05:13.260Z,26.29
2022-08-17T10:10:27.875Z,27.34
2022-08-17T10:15:50.187Z,27.81
2022-08-17T10:21:18.871Z,28.26
2022-08-17T10:26:24.361Z,28.06
2022-08-17T10:31:44.097Z,27.74
2022-08-17T10:36:45.635Z,28.35
2022-08-17T10:41:51.468Z,29.44
2022-08-17T10:47:12.612Z,30.99
2022-08-17T10:52:20.132Z,30.24
2022-08-17T10:57:30.589Z,31.28
2022-08-17T11:02:49.478Z,30.52
2022-08-17T11:08:03.301Z,29.51
2022-08-17T11:13:09.238Z,28.63
2022-08-17T11:18:25.801Z,29.03
2022-08-17T11:23:52.533Z,30.89
2022-08-17T11:29:06.020Z,31.39
2022-08-17T11:34:13.825Z,31.21
2022-08-17T11:39:18.379Z,31.14
2022-08-17T11:44:28.868Z,29.89
2022-08-17T11:49:56.151Z,31.45
2022-08-17T11:55:12.219Z,33.21
2022-08-17T12:00:46.507Z,31.27
2022-08-17T12:05:49.026Z,31.58
2022-08-17T12:11:56.324Z,31.92
2022-08-17T12:17:06.912Z,31.60
2022-08-17T12:22:08.452Z,32.49
2022-08-17T12:27:11.155Z,32.45
2022-08-17T12:32:20.400Z,32.67
2022-08-17T12:37:23.719Z,32.38
2022-08-17T12:42:38.434Z,32.47
2022-08-17T12:47:40.018Z,32.29
2022-08-17T12:52:43.506Z,31.45
2022-08-17T12:57:49.987Z,32.78
2022-08-17T13:03:19.541Z,31.90
2022-08-17T13:08:41.533Z,33.41
2022-08-17T13:13:48.698Z,33.96
2022-08-17T13:18:53.550Z,34.19
2022-08-17T13:24:13.452Z,34.05
2022-08-17T13:29:23.013Z,32.78
2022-08-17T13:34:24.502Z,33.00
2022-08-17T13:39:28.520Z,32.11
2022-08-17T13:44:31.619Z,31.84
2022-08-17T13:49:48.114Z,31.05
2022-08-17T13:54:51.685Z,30.45
2022-08-17T14:00:15.771Z,30.48
2022-08-17T14:05:17.468Z,29.65
2022-08-17T14:10:20.342Z,29.45
2022-08-17T14:15:55.452Z,29.36
2022-08-17T14:20:47.016Z,29.42
2022-08-17T14:25:48.632Z,29.37
2022-08-17T14:30:50.222Z,29.17
2022-08-17T14:35:51.949Z,29.41
2022-08-17T14:40:53.721Z,30.64
2022-08-17T14:45:55.426Z,30.57
2022-08-17T14:50:56.993Z,30.20
2022-08-17T14:55:58.672Z,30.16
2022-08-17T15:01:00.302Z,31.40
2022-08-17T15:06:01.961Z,31.08
2022-08-17T15:11:04.602Z,31.00
2022-08-17T15:16:06.421Z,31.03
2022-08-17T15:21:09.304Z,31.86
2022-08-17T15:26:11.473Z,32.16
2022-08-17T15:31:13.345Z,32.92
2022-08-17T15:36:15.001Z,31.95
2022-08-17T15:41:17.668Z,31.77
2022-08-17T15:46:22.098Z,31.88
2022-08-17T15:51:35.122Z,31.07
2022-08-17T15:56:38.009Z,30.80
2022-08-17T16:03:13.662Z,31.05
2022-08-17T16:07:01.161Z,30.38
2022-08-17T16:12:21.751Z,31.22
2022-08-17T16:17:38.718Z,32.23
2022-08-17T16:22:45.702Z,31.32
2022-08-17T16:27:50.097Z,31.70
2022-08-17T16:32:53.965Z,31.52
2022-08-17T16:37:56.533Z,30.71
2022-08-17T16:42:59.014Z,30.58
2022-08-17T16:48:00.717Z,30.11
2022-08-17T16:53:13.658Z,30.32
2022-08-17T16:58:15.745Z,30.84
2022-08-17T17:03:21.860Z,31.03
2022-08-17T17:08:33.920Z,31.08
2022-08-17T17:13:44.601Z,30.24
2022-08-17T17:19:34.326Z,29.17
2022-08-17T17:24:56.978Z,29.12
2022-08-17T17:30:12.813Z,29.03
2022-08-17T17:35:25.616Z,29.18
2022-08-17T17:40:54.802Z,28.65
2022-08-17T17:46:28.339Z,28.13
2022-08-17T17:52:09.146Z,27.70
2022-08-17T17:57:30.249Z,27.52
2022-08-17T18:02:46.541Z,27.29
2022-08-17T18:08:04.755Z,27.08
2022-08-17T18:13:47.807Z,26.81
2022-08-17T18:18:51.162Z,26.73
2022-08-17T18:23:55.394Z,26.55
2022-08-17T18:28:57.142Z,26.33
2022-08-17T18:34:45.826Z,26.18
2022-08-17T18:39:44.275Z,25.98
2022-08-17T18:44:46.004Z,25.87
2022-08-17T18:49:56.848Z,25.71
2022-08-17T18:55:13.609Z,25.58
2022-08-17T19:00:21.333Z,25.50
2022-08-17T19:05:39.825Z,25.35
2022-08-17T19:10:46.381Z,25.21
2022-08-17T19:16:13.834Z,25.19
2022-08-17T19:21:37.128Z,25.11
2022-08-17T19:26:55.382Z,24.94
2022-08-17T19:31:58.731Z,24.80
2022-08-17T19:37:09.255Z,24.66
2022-08-17T19:42:17.844Z,24.53
2022-08-17T19:48:04.650Z,24.41
2022-08-17T19:53:06.370Z,24.34
2022-08-17T19:58:38.636Z,24.25
2022-08-17T20:04:07.927Z,24.18
2022-08-17T20:09:29.697Z,24.12
2022-08-17T20:15:08.601Z,24.08
2022-08-17T20:20:31.810Z,24.04
2022-08-17T20:25:57.239Z,24.02
2022-08-17T20:30:58.960Z,23.85
2022-08-17T20:36:11.514Z,23.73
2022-08-17T20:41:14.859Z,23.65
2022-08-17T20:46:28.202Z,23.59
2022-08-17T20:51:33.849Z,23.60
2022-08-17T20:56:44.311Z,23.56
2022-08-17T21:02:05.166Z,23.47
2022-08-17T21:07:27.984Z,23.32
2022-08-17T21:13:01.682Z,23.22
2022-08-17T21:18:15.372Z,23.19
2022-08-17T21:23:31.601Z,23.14
2022-08-17T21:29:00.761Z,23.04
2022-08-17T21:34:15.291Z,22.89
2022-08-17T21:39:30.638Z,22.71
2022-08-17T21:44:37.373Z,22.59
2022-08-17T21:49:38.934Z,22.44
2022-08-17T21:54:48.496Z,22.30
2022-08-17T21:59:59.964Z,22.21
2022-08-17T22:05:13.947Z,21.86
2022-08-17T22:10:27.774Z,21.71
2022-08-17T22:15:29.486Z,21.39
2022-08-17T22:20:31.334Z,21.21
2022-08-17T22:25:37.007Z,21.13
2022-08-17T22:30:40.651Z,20.95
2022-08-17T22:35:43.382Z,20.90
2022-08-17T22:41:13.102Z,20.89
2022-08-17T22:46:15.450Z,20.85
2022-08-17T22:51:27.986Z,20.63
2022-08-17T22:56:29.724Z,20.66
2022-08-17T23:01:33.148Z,20.61
2022-08-17T23:06:36.880Z,20.73
2022-08-17T23:11:48.908Z,20.94
2022-08-17T23:16:51.676Z,21.10
2022-08-17T23:21:54.198Z,21.19
2022-08-17T23:26:57.384Z,21.31
2022-08-17T23:32:00.158Z,21.33
2022-08-17T23:37:01.869Z,21.29
2022-08-17T23:42:08.694Z,21.24
2022-08-17T23:47:10.942Z,21.15
2022-08-17T23:52:16.379Z,21.08
2022-08-17T23:57:20.545Z,20.83
